createdAt,value
2023-04-10T00:02:26.294Z,6.90
2023-04-10T00:04:53.790Z,6.90
2023-04-10T00:07:21.090Z,6.90
2023-04-10T00:09:48.486Z,6.90
2023-04-10T00:12:16.009Z,6.80
2023-04-10T00:14:43.251Z,6.80
2023-04-10T00:17:10.546Z,6.80
2023-04-10T00:19:37.891Z,6.70
2023-04-10T00:22:05.810Z,6.70
2023-04-10T00:24:34.133Z,6.60
2023-04-10T00:27:01.486Z,6.60
2023-04-10T00:29:28.790Z,6.60
2023-04-10T00:31:56.089Z,6.50
2023-04-10T00:34:24.265Z,6.50
2023-04-10T00:36:51.486Z,6.50
2023-04-10T00:39:19.287Z,6.50
2023-04-10T00:41:46.601Z,6.40
2023-04-10T00:44:13.813Z,6.40
2023-04-10T00:46:41.525Z,6.40
2023-04-10T00:49:09.610Z,6.40
2023-04-10T00:51:37.477Z,6.30
2023-04-10T00:54:04.862Z,6.30
2023-04-10T00:56:32.344Z,6.30
2023-04-10T00:59:00.287Z,6.30
2023-04-10T01:01:27.600Z,6.20
2023-04-10T01:03:56.052Z,6.20
2023-04-10T01:06:56.442Z,6.20
2023-04-10T01:09:46.383Z,6.10
2023-04-10T01:12:28.489Z,6.10
2023-04-10T01:15:20.979Z,6.10
2023-04-10T01:17:51.326Z,6.10
2023-04-10T01:20:23.470Z,6.00
2023-04-10T01:23:28.008Z,6.00
2023-04-10T01:26:06.682Z,5.90
2023-04-10T01:28:53.620Z,5.90
2023-04-10T01:31:28.452Z,5.90
2023-04-10T01:34:04.648Z,5.80
2023-04-10T01:36:37.829Z,5.80
2023-04-10T01:39:08.251Z,5.80
2023-04-10T01:41:36.974Z,5.80
2023-04-10T01:44:05.981Z,5.70
2023-04-10T01:46:33.939Z,5.70
2023-04-10T01:49:03.253Z,5.70
2023-04-10T01:51:31.462Z,5.60
2023-04-10T01:54:02.176Z,5.60
2023-04-10T01:56:30.129Z,5.50
2023-04-10T01:58:57.911Z,5.50
2023-04-10T02:01:29.541Z,5.50
2023-04-10T02:03:59.223Z,5.50
2023-04-10T02:06:34.488Z,5.50
2023-04-10T02:09:18.026Z,5.50
2023-04-10T02:11:58.361Z,5.40
2023-04-10T02:14:32.423Z,5.40
2023-04-10T02:17:02.598Z,5.30
2023-04-10T02:19:31.847Z,5.30
2023-04-10T02:21:59.526Z,5.30
2023-04-10T02:24:27.407Z,5.30
2023-04-10T02:26:54.661Z,5.30
2023-04-10T02:29:23.673Z,5.20
2023-04-10T02:31:50.982Z,5.20
2023-04-10T02:34:18.695Z,5.10
2023-04-10T02:36:45.910Z,5.10
2023-04-10T02:39:13.437Z,5.00
2023-04-10T02:41:48.709Z,5.00
2023-04-10T02:44:16.363Z,4.90
2023-04-10T02:46:44.349Z,4.90
2023-04-10T02:49:13.637Z,4.90
2023-04-10T02:51:40.976Z,4.90
2023-04-10T02:54:08.748Z,4.80
2023-04-10T02:56:39.821Z,4.80
2023-04-10T02:59:07.972Z,4.70
2023-04-10T03:01:35.824Z,4.70
2023-04-10T03:04:04.374Z,4.70
2023-04-10T03:06:36.961Z,4.60
2023-04-10T03:09:04.258Z,4.60
2023-04-10T03:11:34.263Z,4.60
2023-04-10T03:14:01.978Z,4.60
2023-04-10T03:16:29.443Z,4.60
2023-04-10T03:18:57.630Z,4.60
2023-04-10T03:21:25.072Z,4.60
2023-04-10T03:23:52.556Z,4.60
2023-04-10T03:26:20.866Z,4.50
2023-04-10T03:28:48.253Z,4.50
2023-04-10T03:31:15.660Z,4.50
2023-04-10T03:33:44.929Z,4.50
2023-04-10T03:36:12.473Z,4.40
2023-04-10T03:38:39.707Z,4.40
2023-04-10T03:41:09.492Z,4.50
2023-04-10T03:43:36.826Z,4.40
2023-04-10T03:46:05.677Z,4.30
2023-04-10T03:48:34.442Z,4.30
2023-04-10T03:51:02.290Z,4.30
2023-04-10T03:53:29.564Z,4.30
2023-04-10T03:55:56.854Z,4.30
2023-04-10T03:58:25.610Z,4.30
2023-04-10T04:00:55.414Z,4.30
2023-04-10T04:03:32.331Z,4.30
2023-04-10T04:05:59.737Z,4.30
2023-04-10T04:08:36.254Z,4.30
2023-04-10T04:11:12.981Z,4.30
2023-04-10T04:13:54.711Z,4.20
2023-04-10T04:16:40.573Z,4.30
2023-04-10T04:19:28.105Z,4.20
2023-04-10T04:22:21.795Z,4.20
2023-04-10T04:25:01.160Z,4.20
2023-04-10T04:27:46.986Z,4.20
2023-04-10T04:30:36.660Z,4.20
2023-04-10T04:33:24.120Z,4.20
2023-04-10T04:35:58.982Z,4.20
2023-04-10T04:38:38.492Z,4.10
2023-04-10T04:41:32.177Z,4.10
2023-04-10T04:44:22.361Z,4.10
2023-04-10T04:47:15.681Z,4.10
2023-04-10T04:50:01.353Z,4.10
2023-04-10T04:52:51.418Z,4.10
2023-04-10T04:55:26.299Z,4.10
2023-04-10T04:57:57.377Z,4.10
2023-04-10T05:00:31.747Z,4.10
2023-04-10T05:03:17.727Z,4.20
2023-04-10T05:06:14.271Z,4.30
2023-04-10T05:08:55.126Z,4.50
2023-04-10T05:11:46.192Z,4.80
2023-04-10T05:14:39.540Z,5.10
2023-04-10T05:17:18.609Z,5.50
2023-04-10T05:20:09.885Z,6.00
2023-04-10T05:22:45.806Z,6.50
2023-04-10T05:25:28.090Z,7.00
2023-04-10T05:28:11.885Z,7.50
2023-04-10T05:31:08.739Z,8.00
2023-04-10T05:33:39.051Z,8.60
2023-04-10T05:36:29.356Z,9.00
2023-04-10T05:39:23.134Z,9.60
2023-04-10T05:42:10.026Z,10.20
2023-04-10T05:44:50.828Z,10.70
2023-04-10T05:47:41.559Z,11.20
2023-04-10T05:50:19.172Z,11.70
2023-04-10T05:53:05.418Z,12.20
2023-04-10T05:55:44.734Z,12.60
2023-04-10T05:58:38.309Z,13.00
2023-04-10T06:01:14.683Z,13.40
2023-04-10T06:03:51.296Z,13.80
2023-04-10T06:06:21.266Z,14.20
2023-04-10T06:08:48.613Z,14.60
2023-04-10T06:11:16.033Z,15.00
2023-04-10T06:13:47.873Z,15.40
2023-04-10T06:16:16.378Z,15.80
2023-04-10T06:18:45.365Z,16.20
2023-04-10T06:21:12.698Z,16.60
2023-04-10T06:23:40.819Z,17.00
2023-04-10T06:26:08.403Z,17.30
2023-04-10T06:28:35.831Z,17.60
2023-04-10T06:31:07.167Z,17.90
2023-04-10T06:33:37.104Z,18.30
2023-04-10T06:36:07.120Z,18.50
2023-04-10T06:38:40.444Z,18.80
2023-04-10T06:41:08.492Z,19.10
2023-04-10T06:43:37.896Z,19.40
2023-04-10T06:46:06.018Z,19.70
2023-04-10T06:48:33.681Z,20.00
2023-04-10T06:51:01.063Z,20.30
2023-04-10T06:53:28.525Z,20.60
2023-04-10T06:55:56.781Z,20.80
2023-04-10T06:58:24.505Z,21.10
2023-04-10T07:00:51.997Z,21.30
2023-04-10T07:03:19.601Z,21.60
2023-04-10T07:05:47.012Z,21.90
2023-04-10T07:08:14.329Z,22.20
2023-04-10T07:10:41.721Z,22.50
2023-04-10T07:13:08.986Z,22.60
2023-04-10T07:15:36.386Z,22.70
2023-04-10T07:18:03.796Z,22.70
2023-04-10T07:20:31.104Z,22.50
2023-04-10T07:22:58.340Z,22.40
2023-04-10T07:25:25.818Z,22.30
2023-04-10T07:27:53.241Z,22.30
2023-04-10T07:30:20.719Z,22.20
2023-04-10T07:32:48.250Z,22.10
2023-04-10T07:35:15.753Z,22.00
2023-04-10T07:37:44.105Z,21.90
2023-04-10T07:40:11.956Z,21.70
2023-04-10T07:42:39.372Z,21.60
2023-04-10T07:45:07.269Z,21.40
2023-04-10T07:47:34.649Z,21.30
2023-04-10T07:50:02.014Z,21.30
2023-04-10T07:52:29.258Z,21.30
2023-04-10T07:54:56.727Z,21.30
2023-04-10T07:57:24.668Z,21.30
2023-04-10T07:59:52.014Z,21.30
2023-04-10T08:02:19.474Z,21.40
2023-04-10T08:04:47.216Z,21.50
2023-04-10T08:07:14.673Z,21.70
2023-04-10T08:09:41.913Z,21.70
2023-04-10T08:12:09.161Z,21.70
2023-04-10T08:14:36.605Z,21.70
2023-04-10T08:17:04.122Z,21.70
2023-04-10T08:19:31.584Z,21.70
2023-04-10T08:21:58.946Z,21.70
2023-04-10T08:24:26.228Z,21.70
2023-04-10T08:26:53.603Z,21.70
2023-04-10T08:31:49.636Z,21.70
2023-04-10T08:34:17.002Z,21.60
2023-04-10T08:36:44.335Z,21.50
2023-04-10T08:39:11.675Z,21.50
2023-04-10T08:41:41.358Z,21.60
2023-04-10T08:44:08.775Z,21.70
2023-04-10T08:46:40.104Z,21.80
2023-04-10T08:49:10.666Z,21.70
2023-04-10T08:51:48.688Z,21.70
2023-04-10T08:54:25.492Z,21.70
2023-04-10T08:56:55.519Z,21.70
2023-04-10T08:59:23.095Z,21.70
2023-04-10T09:01:50.606Z,21.70
2023-04-10T09:04:18.452Z,21.60
2023-04-10T09:06:46.187Z,21.60
2023-04-10T09:09:13.570Z,21.50
2023-04-10T09:11:53.967Z,21.40
2023-04-10T09:14:22.757Z,21.30
2023-04-10T09:16:51.941Z,21.30
2023-04-10T09:19:31.762Z,21.30
2023-04-10T09:21:59.522Z,21.30
2023-04-10T09:24:27.412Z,21.20
2023-04-10T09:26:55.326Z,21.00
2023-04-10T09:29:22.669Z,20.90
2023-04-10T09:31:51.322Z,20.80
2023-04-10T09:34:22.259Z,20.80
2023-04-10T09:36:58.067Z,20.60
2023-04-10T09:39:36.165Z,20.60
2023-04-10T09:42:03.759Z,20.40
2023-04-10T09:44:37.333Z,20.30
2023-04-10T09:47:14.607Z,20.20
2023-04-10T09:49:53.406Z,20.10
2023-04-10T09:52:28.804Z,19.90
2023-04-10T09:55:01.394Z,19.80
2023-04-10T09:57:30.853Z,19.80
2023-04-10T10:00:00.444Z,19.90
2023-04-10T10:02:33.945Z,19.90
2023-04-10T10:05:04.050Z,19.90
2023-04-10T10:07:31.682Z,19.70
2023-04-10T10:10:00.623Z,19.70
2023-04-10T10:12:45.908Z,19.50
2023-04-10T10:15:19.637Z,19.20
2023-04-10T10:18:11.560Z,18.90
2023-04-10T10:20:41.985Z,18.60
2023-04-10T10:23:09.512Z,18.40
2023-04-10T10:25:37.689Z,18.10
2023-04-10T10:28:05.899Z,18.00
2023-04-10T10:30:34.317Z,17.90
2023-04-10T10:33:06.608Z,17.80
2023-04-10T10:35:35.983Z,17.80
2023-04-10T10:38:04.656Z,17.80
2023-04-10T10:40:53.589Z,17.80
2023-04-10T10:43:37.539Z,17.80
2023-04-10T10:46:09.383Z,17.80
2023-04-10T10:48:36.889Z,17.70
2023-04-10T10:51:04.351Z,17.70
2023-04-10T10:53:42.673Z,17.60
2023-04-10T10:56:37.081Z,17.50
2023-04-10T10:59:04.559Z,17.50
2023-04-10T11:01:32.015Z,17.50
2023-04-10T11:04:00.234Z,17.50
2023-04-10T11:06:51.325Z,17.60
2023-04-10T11:09:54.435Z,17.70
2023-04-10T11:12:25.381Z,17.80
2023-04-10T11:15:00.337Z,17.80
2023-04-10T11:17:47.774Z,17.80
2023-04-10T11:20:15.654Z,17.80
2023-04-10T11:23:12.704Z,17.80
2023-04-10T11:25:54.610Z,17.90
2023-04-10T11:28:35.987Z,18.00
2023-04-10T11:31:20.667Z,18.00
2023-04-10T11:33:54.394Z,18.10
2023-04-10T11:36:21.788Z,18.10
2023-04-10T11:39:09.635Z,18.20
2023-04-10T11:41:39.566Z,18.30
2023-04-10T11:44:10.385Z,18.40
2023-04-10T11:46:39.437Z,18.50
2023-04-10T11:49:09.581Z,18.50
2023-04-10T11:51:38.686Z,18.50
2023-04-10T11:54:22.070Z,18.50
2023-04-10T11:57:05.969Z,18.50
2023-04-10T11:59:33.976Z,18.60
2023-04-10T12:02:08.893Z,18.60
2023-04-10T12:04:36.648Z,18.60
2023-04-10T12:07:04.264Z,18.60
2023-04-10T12:09:31.853Z,18.50
2023-04-10T12:12:09.193Z,18.50
2023-04-10T12:14:39.434Z,18.40
2023-04-10T12:17:08.573Z,18.40
2023-04-10T12:19:38.843Z,18.30
2023-04-10T12:22:07.514Z,18.40
2023-04-10T12:24:46.473Z,18.50
2023-04-10T12:27:21.672Z,18.50
2023-04-10T12:29:51.216Z,18.60
2023-04-10T12:32:19.275Z,18.70
2023-04-10T12:34:57.151Z,18.80
2023-04-10T12:37:49.483Z,18.90
2023-04-10T12:40:18.101Z,18.90
2023-04-10T12:42:45.666Z,19.00
2023-04-10T12:45:14.445Z,19.00
2023-04-10T12:47:53.710Z,19.00
2023-04-10T12:50:21.202Z,19.00
2023-04-10T12:53:08.035Z,18.80
2023-04-10T12:55:35.513Z,18.80
2023-04-10T12:58:21.367Z,18.80
2023-04-10T13:00:49.063Z,18.80
2023-04-10T13:03:16.518Z,18.80
2023-04-10T13:05:44.835Z,18.80
2023-04-10T13:08:12.217Z,18.80
2023-04-10T13:10:40.527Z,18.80
2023-04-10T13:13:08.305Z,18.90
2023-04-10T13:15:35.686Z,18.90
2023-04-10T13:18:05.694Z,18.90
2023-04-10T13:20:38.995Z,18.90
2023-04-10T13:23:07.853Z,18.90
2023-04-10T13:25:39.822Z,18.90
2023-04-10T13:28:11.442Z,18.90
2023-04-10T13:30:41.248Z,18.90
2023-04-10T13:33:09.620Z,18.90
2023-04-10T13:35:37.230Z,18.90
2023-04-10T13:38:04.782Z,18.90
2023-04-10T13:40:32.114Z,18.80
2023-04-10T13:42:59.396Z,18.80
2023-04-10T13:45:26.833Z,18.70
2023-04-10T13:47:54.093Z,18.60
2023-04-10T13:50:21.414Z,18.60
2023-04-10T13:52:50.606Z,18.60
2023-04-10T13:55:19.542Z,18.60
2023-04-10T13:57:46.925Z,18.60
2023-04-10T14:00:14.867Z,18.60
2023-04-10T14:02:43.043Z,18.70
2023-04-10T14:05:10.724Z,18.70
2023-04-10T14:07:38.136Z,18.70
2023-04-10T14:10:06.250Z,18.70
2023-04-10T14:12:35.258Z,18.70
2023-04-10T14:15:03.553Z,18.70
2023-04-10T14:17:31.001Z,18.60
2023-04-10T14:19:58.258Z,18.60
2023-04-10T14:22:25.685Z,18.60
2023-04-10T14:25:01.744Z,18.60
2023-04-10T14:27:37.020Z,18.60
2023-04-10T14:30:04.966Z,18.60
2023-04-10T14:32:32.549Z,18.50
2023-04-10T14:34:59.855Z,18.50
2023-04-10T14:37:27.092Z,18.50
2023-04-10T14:39:54.447Z,18.50
2023-04-10T14:42:23.634Z,18.40
2023-04-10T14:44:51.091Z,18.40
2023-04-10T14:47:18.481Z,18.30
2023-04-10T14:49:45.748Z,18.30
2023-04-10T14:52:13.098Z,18.20
2023-04-10T14:54:40.383Z,18.20
2023-04-10T14:57:08.016Z,18.30
2023-04-10T14:59:35.589Z,18.30
2023-04-10T15:02:02.846Z,18.30
2023-04-10T15:04:30.271Z,18.20
2023-04-10T15:06:57.678Z,18.20
2023-04-10T15:09:25.248Z,18.20
2023-04-10T15:11:52.563Z,18.10
2023-04-10T15:14:20.205Z,18.00
2023-04-10T15:16:47.855Z,17.90
2023-04-10T15:19:15.386Z,17.90
2023-04-10T15:21:42.756Z,17.90
2023-04-10T15:24:10.267Z,17.90
2023-04-10T15:26:43.231Z,17.80
2023-04-10T15:29:10.897Z,17.80
2023-04-10T15:31:38.163Z,17.80
2023-04-10T15:34:05.716Z,17.80
2023-04-10T15:36:33.299Z,17.80
2023-04-10T15:39:02.718Z,17.70
2023-04-10T15:41:31.734Z,17.60
2023-04-10T15:43:59.282Z,17.60
2023-04-10T15:46:27.195Z,17.60
2023-04-10T15:48:54.743Z,17.50
2023-04-10T15:51:22.077Z,17.50
2023-04-10T15:53:49.309Z,17.50
2023-04-10T15:56:17.047Z,17.50
2023-04-10T15:58:44.479Z,17.50
2023-04-10T16:01:11.917Z,17.40
2023-04-10T16:03:39.321Z,17.40
2023-04-10T16:06:07.530Z,17.40
2023-04-10T16:08:35.422Z,17.40
2023-04-10T16:11:02.892Z,17.40
2023-04-10T16:13:30.225Z,17.40
2023-04-10T16:15:57.723Z,17.30
2023-04-10T16:18:25.092Z,17.30
2023-04-10T16:20:52.451Z,17.30
2023-04-10T16:23:19.798Z,17.30
2023-04-10T16:25:47.205Z,17.30
2023-04-10T16:28:14.605Z,17.20
2023-04-10T16:30:41.936Z,17.20
2023-04-10T16:33:09.373Z,17.10
2023-04-10T16:35:36.803Z,17.10
2023-04-10T16:38:04.201Z,17.10
2023-04-10T16:40:32.916Z,17.00
2023-04-10T16:43:01.702Z,17.00
2023-04-10T16:45:29.178Z,16.90
2023-04-10T16:47:56.569Z,16.90
2023-04-10T16:50:24.216Z,16.90
2023-04-10T16:52:51.736Z,16.80
2023-04-10T16:55:19.281Z,16.70
2023-04-10T16:57:46.651Z,16.70
2023-04-10T17:00:14.276Z,16.70
2023-04-10T17:02:42.786Z,16.60
2023-04-10T17:05:11.402Z,16.60
2023-04-10T17:07:38.819Z,16.60
2023-04-10T17:10:06.601Z,16.60
2023-04-10T17:12:33.999Z,16.50
2023-04-10T17:15:01.551Z,16.40
2023-04-10T17:17:29.117Z,16.40
2023-04-10T17:19:56.713Z,16.40
2023-04-10T17:22:24.170Z,16.30
2023-04-10T17:24:51.638Z,16.30
2023-04-10T17:27:19.093Z,16.20
2023-04-10T17:29:46.330Z,16.20
2023-04-10T17:32:13.637Z,16.10
2023-04-10T17:34:40.951Z,16.10
2023-04-10T17:37:08.333Z,16.00
2023-04-10T17:39:35.754Z,16.00
2023-04-10T17:42:03.265Z,15.90
2023-04-10T17:44:30.984Z,15.90
2023-04-10T17:46:58.399Z,15.90
2023-04-10T17:49:26.198Z,15.80
2023-04-10T17:51:53.577Z,15.70
2023-04-10T17:54:20.824Z,15.70
2023-04-10T17:56:48.210Z,15.70
2023-04-10T17:59:15.437Z,15.60
2023-04-10T18:01:42.832Z,15.60
2023-04-10T18:04:10.290Z,15.50
2023-04-10T18:06:37.799Z,15.50
2023-04-10T18:09:05.167Z,15.50
2023-04-10T18:11:32.796Z,15.40
2023-04-10T18:14:00.511Z,15.40
2023-04-10T18:16:27.955Z,15.30
2023-04-10T18:18:55.543Z,15.30
2023-04-10T18:21:23.114Z,15.30
2023-04-10T18:23:50.358Z,15.20
2023-04-10T18:26:20.747Z,15.20
2023-04-10T18:28:48.215Z,15.10
2023-04-10T18:31:16.604Z,15.10
2023-04-10T18:33:44.072Z,15.10
2023-04-10T18:36:13.800Z,15.00
2023-04-10T18:38:43.669Z,15.00
2023-04-10T18:41:10.926Z,15.00
2023-04-10T18:43:39.032Z,14.90
2023-04-10T18:46:06.854Z,14.80
2023-04-10T18:48:35.953Z,14.80
2023-04-10T18:51:03.595Z,14.70
2023-04-10T18:53:31.084Z,14.60
2023-04-10T18:55:58.512Z,14.60
2023-04-10T18:58:25.961Z,14.50
2023-04-10T19:00:53.733Z,14.40
2023-04-10T19:03:21.513Z,14.40
2023-04-10T19:05:49.268Z,14.30
2023-04-10T19:08:17.079Z,14.30
2023-04-10T19:10:44.453Z,14.20
2023-04-10T19:13:12.396Z,14.20
2023-04-10T19:15:45.983Z,14.10
2023-04-10T19:18:15.043Z,14.10
2023-04-10T19:20:50.916Z,14.00
2023-04-10T19:23:21.100Z,14.00
2023-04-10T19:25:52.937Z,14.00
2023-04-10T19:28:20.428Z,14.00
2023-04-10T19:30:47.953Z,13.90
2023-04-10T19:33:15.595Z,13.90
2023-04-10T19:35:42.911Z,13.80
2023-04-10T19:38:10.518Z,13.80
2023-04-10T19:40:38.062Z,13.80
2023-04-10T19:43:05.420Z,13.70
2023-04-10T19:45:36.900Z,13.70
2023-04-10T19:48:05.091Z,13.70
2023-04-10T19:50:32.928Z,13.70
2023-04-10T19:53:00.437Z,13.70
2023-04-10T19:55:27.827Z,13.70
2023-04-10T19:57:55.156Z,13.70
2023-04-10T20:00:22.483Z,13.70
2023-04-10T20:02:49.833Z,13.70
2023-04-10T20:05:17.355Z,13.60
2023-04-10T20:07:44.633Z,13.60
2023-04-10T20:10:12.222Z,13.50
2023-04-10T20:12:39.484Z,13.50
2023-04-10T20:15:07.566Z,13.50
2023-04-10T20:17:35.578Z,13.50
2023-04-10T20:20:03.449Z,13.40
2023-04-10T20:22:30.810Z,13.40
2023-04-10T20:24:58.330Z,13.40
2023-04-10T20:27:25.677Z,13.30
2023-04-10T20:29:52.971Z,13.30
2023-04-10T20:32:20.780Z,13.30
2023-04-10T20:34:48.027Z,13.20
2023-04-10T20:37:21.426Z,13.20
2023-04-10T20:39:49.139Z,13.20
2023-04-10T20:42:17.102Z,13.10
2023-04-10T20:44:44.437Z,13.20
2023-04-10T20:47:11.780Z,13.10
2023-04-10T20:49:39.113Z,13.10
2023-04-10T20:52:06.834Z,13.10
2023-04-10T20:54:34.234Z,13.10
2023-04-10T20:57:01.843Z,13.00
2023-04-10T20:59:29.450Z,13.00
2023-04-10T21:01:57.661Z,12.90
2023-04-10T21:04:25.321Z,12.90
2023-04-10T21:06:52.929Z,12.80
2023-04-10T21:09:20.496Z,12.80
2023-04-10T21:11:47.764Z,12.80
2023-04-10T21:14:15.191Z,12.80
2023-04-10T21:16:42.789Z,12.70
2023-04-10T21:19:10.387Z,12.80
2023-04-10T21:21:37.702Z,12.70
2023-04-10T21:24:05.332Z,12.70
2023-04-10T21:26:32.581Z,12.70
2023-04-10T21:29:00.024Z,12.70
2023-04-10T21:31:27.415Z,12.70
2023-04-10T21:33:54.815Z,12.70
2023-04-10T21:36:22.098Z,12.70
2023-04-10T21:38:49.284Z,12.70
2023-04-10T21:41:16.689Z,12.60
2023-04-10T21:43:44.130Z,12.60
2023-04-10T21:46:11.526Z,12.60
2023-04-10T21:48:39.008Z,12.50
2023-04-10T21:51:06.508Z,12.50
2023-04-10T21:53:33.794Z,12.40
2023-04-10T21:56:00.974Z,12.40
2023-04-10T21:58:28.410Z,12.30
2023-04-10T22:00:55.685Z,12.30
2023-04-10T22:03:24.061Z,12.30
2023-04-10T22:05:51.490Z,12.30
2023-04-10T22:08:20.058Z,12.20
2023-04-10T22:10:47.943Z,12.20
2023-04-10T22:13:27.442Z,12.20
2023-04-10T22:15:59.823Z,12.20
2023-04-10T22:18:27.242Z,12.20
2023-04-10T22:20:54.473Z,12.20
2023-04-10T22:23:21.805Z,12.20
2023-04-10T22:25:49.093Z,12.20
2023-04-10T22:28:16.535Z,12.20
2023-04-10T22:30:43.969Z,12.20
2023-04-10T22:33:12.029Z,12.30
2023-04-10T22:35:39.417Z,12.30
2023-04-10T22:38:07.645Z,12.30
2023-04-10T22:40:35.335Z,12.30
2023-04-10T22:43:03.011Z,12.30
2023-04-10T22:45:30.463Z,12.20
2023-04-10T22:47:57.926Z,12.20
2023-04-10T22:50:25.406Z,12.20
2023-04-10T22:52:52.608Z,12.20
2023-04-10T22:55:19.931Z,12.20
2023-04-10T22:57:49.258Z,12.20
2023-04-10T23:00:16.653Z,12.20
2023-04-10T23:02:44.110Z,12.20
2023-04-10T23:05:11.462Z,12.20
2023-04-10T23:07:38.646Z,12.20
2023-04-10T23:10:06.604Z,12.20
2023-04-10T23:12:33.794Z,12.20
2023-04-10T23:15:01.180Z,12.20
2023-04-10T23:17:28.373Z,12.20
2023-04-10T23:19:55.737Z,12.20
2023-04-10T23:22:23.153Z,12.20
2023-04-10T23:24:56.927Z,12.20
2023-04-10T23:27:24.169Z,12.20
2023-04-10T23:29:51.418Z,12.20
2023-04-10T23:32:18.716Z,12.20
2023-04-10T23:34:45.925Z,12.20
2023-04-10T23:37:13.319Z,12.30
2023-04-10T23:39:40.579Z,12.30
2023-04-10T23:42:07.857Z,12.30
2023-04-10T23:44:35.663Z,12.30
2023-04-10T23:47:03.252Z,12.30
2023-04-10T23:49:30.600Z,12.30
2023-04-10T23:51:58.061Z,12.30
2023-04-10T23:54:25.391Z,12.20
2023-04-10T23:56:52.721Z,12.30
2023-04-10T23:59:20.007Z,12.30
